createdAt,value
2023-03-21T00:00:35.218Z,18.30
2023-03-21T00:01:35.195Z,13.30
2023-03-21T00:02:35.246Z,15.50
2023-03-21T00:03:35.190Z,14.50
2023-03-21T00:04:48.428Z,13.50
2023-03-21T00:05:35.307Z,12.70
2023-03-21T00:06:35.224Z,12.40
2023-03-21T00:07:35.109Z,16.30
2023-03-21T00:08:35.116Z,16.80
2023-03-21T00:09:35.112Z,10.00
2023-03-21T00:10:42.520Z,10.80
2023-03-21T00:11:35.065Z,13.10
2023-03-21T00:12:35.041Z,10.70
2023-03-21T00:13:35.041Z,10.20
2023-03-21T00:14:35.047Z,13.70
2023-03-21T00:15:42.652Z,11.10
2023-03-21T00:16:36.176Z,12.60
2023-03-21T00:17:34.983Z,15.10
2023-03-21T00:18:34.987Z,16.70
2023-03-21T00:19:34.974Z,16.00
2023-03-21T00:20:34.949Z,11.20
2023-03-21T00:22:05.852Z,16.40
2023-03-21T00:22:34.933Z,12.30
2023-03-21T00:23:34.905Z,16.10
2023-03-21T00:24:34.900Z,11.30
2023-03-21T00:25:34.910Z,15.50
2023-03-21T00:26:34.872Z,15.10
2023-03-21T00:27:53.299Z,15.10
2023-03-21T00:28:34.841Z,13.20
2023-03-21T00:29:34.853Z,9.60
2023-03-21T00:30:34.832Z,14.40
2023-03-21T00:31:34.804Z,17.20
2023-03-21T00:32:39.784Z,13.10
2023-03-21T00:33:34.784Z,14.70
2023-03-21T00:34:43.454Z,10.40
2023-03-21T00:35:57.895Z,15.90
2023-03-21T00:36:34.826Z,17.00
2023-03-21T00:37:34.742Z,13.70
2023-03-21T00:38:35.179Z,11.30
2023-03-21T00:39:34.702Z,12.60
2023-03-21T00:40:40.418Z,11.60
2023-03-21T00:41:42.380Z,9.40
2023-03-21T00:42:34.672Z,17.50
2023-03-21T00:43:34.652Z,14.10
2023-03-21T00:44:34.635Z,14.20
2023-03-21T00:45:35.483Z,12.40
2023-03-21T00:46:45.150Z,10.60
2023-03-21T00:47:34.638Z,13.10
2023-03-21T00:48:34.650Z,14.90
2023-03-21T00:49:34.604Z,12.40
2023-03-21T00:50:34.608Z,14.50
2023-03-21T00:51:34.560Z,8.70
2023-03-21T00:52:40.792Z,16.70
2023-03-21T00:53:34.530Z,16.40
2023-03-21T00:54:34.518Z,14.50
2023-03-21T00:55:34.765Z,15.30
2023-03-21T00:56:34.498Z,12.40
2023-03-21T00:57:38.990Z,16.60
2023-03-21T00:58:34.463Z,12.30
2023-03-21T00:59:34.453Z,13.00
2023-03-21T01:00:34.479Z,16.30
2023-03-21T01:01:34.477Z,11.30
2023-03-21T01:02:34.413Z,15.10
2023-03-21T01:03:34.409Z,17.70
2023-03-21T01:04:34.455Z,16.50
2023-03-21T01:05:34.588Z,10.60
2023-03-21T01:06:34.374Z,15.00
2023-03-21T01:07:34.375Z,15.20
2023-03-21T01:08:48.525Z,11.90
2023-03-21T01:09:34.331Z,15.00
2023-03-21T01:10:34.322Z,18.40
2023-03-21T01:11:34.311Z,14.40
2023-03-21T01:12:34.296Z,15.80
2023-03-21T01:13:36.403Z,15.50
2023-03-21T01:14:34.289Z,11.50
2023-03-21T01:15:34.303Z,16.30
2023-03-21T01:16:34.371Z,14.70
2023-03-21T01:17:34.223Z,11.80
2023-03-21T01:18:34.202Z,15.40
2023-03-21T01:19:50.178Z,14.50
2023-03-21T01:20:34.193Z,15.30
2023-03-21T01:21:34.165Z,20.30
2023-03-21T01:22:34.198Z,12.70
2023-03-21T01:23:34.159Z,15.40
2023-03-21T01:24:37.663Z,11.40
2023-03-21T01:25:34.119Z,14.50
2023-03-21T01:26:34.126Z,14.50
2023-03-21T01:27:34.089Z,14.10
2023-03-21T01:28:34.065Z,15.90
2023-03-21T01:29:34.098Z,18.20
2023-03-21T01:30:41.616Z,13.70
2023-03-21T01:31:34.204Z,12.20
2023-03-21T01:32:34.032Z,18.10
2023-03-21T01:33:34.013Z,16.20
2023-03-21T01:34:34.028Z,19.50
2023-03-21T01:35:40.968Z,17.50
2023-03-21T01:36:34.035Z,13.30
2023-03-21T01:37:33.974Z,13.00
2023-03-21T01:38:33.967Z,18.20
2023-03-21T01:39:33.960Z,12.00
2023-03-21T01:40:33.926Z,13.90
2023-03-21T01:41:42.588Z,14.60
2023-03-21T01:42:33.901Z,12.60
2023-03-21T01:43:33.897Z,9.90
2023-03-21T01:44:33.898Z,10.90
2023-03-21T01:45:33.882Z,14.40
2023-03-21T01:46:44.064Z,13.30
2023-03-21T01:47:33.867Z,15.70
2023-03-21T01:48:33.821Z,15.90
2023-03-21T01:49:33.831Z,15.40
2023-03-21T01:50:33.849Z,20.00
2023-03-21T01:51:33.787Z,11.50
2023-03-21T01:52:37.395Z,16.00
2023-03-21T01:53:33.761Z,12.60
2023-03-21T01:54:33.781Z,20.40
2023-03-21T01:55:33.736Z,16.30
2023-03-21T01:56:33.794Z,20.70
2023-03-21T01:57:42.342Z,12.50
2023-03-21T01:58:33.691Z,19.50
2023-03-21T01:59:33.699Z,16.30
2023-03-21T02:00:33.669Z,18.50
2023-03-21T02:01:33.711Z,13.20
2023-03-21T02:02:33.653Z,18.30
2023-03-21T02:03:36.332Z,19.10
2023-03-21T02:04:33.864Z,18.10
2023-03-21T02:05:33.600Z,15.90
2023-03-21T02:06:33.647Z,18.20
2023-03-21T02:07:33.580Z,13.30
2023-03-21T02:08:39.603Z,19.40
2023-03-21T02:09:33.668Z,19.40
2023-03-21T02:10:33.530Z,18.70
2023-03-21T02:11:33.580Z,18.50
2023-03-21T02:12:33.552Z,19.30
2023-03-21T02:13:33.503Z,22.50
2023-03-21T02:14:33.806Z,17.90
2023-03-21T02:15:33.468Z,19.80
2023-03-21T02:16:33.564Z,19.50
2023-03-21T02:17:33.448Z,17.20
2023-03-21T02:18:33.468Z,19.30
2023-03-21T02:19:41.549Z,23.60
2023-03-21T02:20:33.439Z,18.10
2023-03-21T02:21:33.430Z,20.30
2023-03-21T02:22:33.396Z,16.90
2023-03-21T02:23:33.387Z,15.80
2023-03-21T02:24:33.403Z,21.00
2023-03-21T02:25:33.348Z,19.90
2023-03-21T02:26:41.985Z,15.70
2023-03-21T02:27:33.348Z,23.20
2023-03-21T02:28:33.312Z,21.20
2023-03-21T02:29:33.309Z,19.40
2023-03-21T02:30:49.027Z,18.40
2023-03-21T02:31:33.324Z,19.60
2023-03-21T02:32:37.848Z,20.00
2023-03-21T02:33:33.279Z,19.60
2023-03-21T02:34:33.239Z,19.70
2023-03-21T02:35:37.128Z,20.60
2023-03-21T02:36:33.260Z,20.90
2023-03-21T02:37:38.362Z,19.40
2023-03-21T02:38:33.195Z,17.20
2023-03-21T02:39:33.191Z,17.10
2023-03-21T02:40:33.164Z,20.80
2023-03-21T02:41:40.212Z,21.90
2023-03-21T02:42:33.142Z,15.80
2023-03-21T02:43:33.117Z,20.70
2023-03-21T02:44:33.127Z,20.50
2023-03-21T02:45:33.112Z,20.40
2023-03-21T02:46:41.708Z,25.40
2023-03-21T02:47:33.080Z,16.40
2023-03-21T02:48:44.424Z,12.90
2023-03-21T02:49:33.088Z,21.20
2023-03-21T02:50:33.033Z,24.10
2023-03-21T02:51:33.045Z,17.70
2023-03-21T02:52:39.169Z,20.60
2023-03-21T02:53:33.102Z,23.10
2023-03-21T02:54:47.251Z,20.20
2023-03-21T02:55:32.988Z,14.50
2023-03-21T02:56:32.981Z,19.30
2023-03-21T02:57:42.223Z,17.40
2023-03-21T02:58:32.944Z,20.70
2023-03-21T02:59:35.813Z,16.50
2023-03-21T03:00:32.910Z,19.30
2023-03-21T03:01:32.948Z,23.30
2023-03-21T03:02:33.027Z,17.70
2023-03-21T03:03:34.871Z,26.40
2023-03-21T03:04:32.893Z,20.00
2023-03-21T03:05:32.838Z,16.50
2023-03-21T03:06:32.863Z,16.10
2023-03-21T03:07:32.809Z,17.40
2023-03-21T03:08:43.089Z,19.20
2023-03-21T03:09:32.793Z,19.00
2023-03-21T03:10:32.777Z,15.60
2023-03-21T03:11:32.781Z,19.80
2023-03-21T03:12:32.746Z,19.90
2023-03-21T03:13:32.730Z,21.10
2023-03-21T03:14:46.967Z,17.90
2023-03-21T03:15:32.816Z,19.80
2023-03-21T03:16:32.713Z,22.70
2023-03-21T03:17:32.680Z,20.30
2023-03-21T03:18:32.682Z,18.20
2023-03-21T03:19:36.694Z,21.70
2023-03-21T03:20:32.667Z,15.40
2023-03-21T03:21:32.693Z,15.90
2023-03-21T03:22:32.627Z,18.50
2023-03-21T03:23:32.609Z,25.50
2023-03-21T03:24:32.599Z,24.40
2023-03-21T03:25:42.030Z,16.70
2023-03-21T03:26:32.606Z,20.60
2023-03-21T03:27:32.583Z,19.60
2023-03-21T03:28:32.549Z,21.50
2023-03-21T03:29:32.527Z,22.50
2023-03-21T03:30:43.068Z,23.10
2023-03-21T03:31:32.563Z,26.00
2023-03-21T03:32:32.501Z,18.60
2023-03-21T03:33:32.479Z,17.10
2023-03-21T03:34:32.534Z,25.70
2023-03-21T03:35:32.518Z,22.20
2023-03-21T03:36:33.286Z,20.40
2023-03-21T03:37:32.430Z,15.20
2023-03-21T03:38:32.428Z,17.40
2023-03-21T03:39:32.423Z,21.00
2023-03-21T03:40:33.949Z,20.70
2023-03-21T03:41:56.267Z,17.50
2023-03-21T03:42:32.376Z,21.30
2023-03-21T03:43:32.372Z,20.00
2023-03-21T03:44:32.419Z,20.30
2023-03-21T03:45:32.334Z,22.60
2023-03-21T03:46:32.394Z,18.50
2023-03-21T03:47:36.317Z,20.80
2023-03-21T03:48:32.321Z,18.40
2023-03-21T03:49:32.307Z,21.90
2023-03-21T03:50:32.280Z,21.30
2023-03-21T03:51:32.275Z,16.20
2023-03-21T03:52:32.320Z,20.20
2023-03-21T03:53:32.212Z,21.10
2023-03-21T03:54:32.254Z,22.20
2023-03-21T03:55:32.197Z,23.20
2023-03-21T03:56:32.194Z,13.20
2023-03-21T03:57:32.184Z,16.60
2023-03-21T03:58:44.476Z,15.80
2023-03-21T03:59:32.176Z,13.60
2023-03-21T04:00:32.149Z,19.80
2023-03-21T04:01:32.197Z,18.10
2023-03-21T04:02:32.228Z,20.10
2023-03-21T04:03:46.071Z,16.60
2023-03-21T04:04:32.171Z,20.30
2023-03-21T04:05:32.066Z,12.80
2023-03-21T04:06:32.061Z,17.40
2023-03-21T04:07:32.099Z,19.30
2023-03-21T04:08:32.040Z,13.80
2023-03-21T04:09:43.673Z,19.50
2023-03-21T04:10:32.010Z,13.00
2023-03-21T04:11:31.989Z,13.00
2023-03-21T04:12:32.043Z,17.90
2023-03-21T04:13:31.973Z,17.50
2023-03-21T04:14:44.218Z,24.50
2023-03-21T04:15:31.961Z,22.10
2023-03-21T04:16:33.899Z,14.50
2023-03-21T04:17:31.948Z,14.70
2023-03-21T04:18:31.913Z,21.30
2023-03-21T04:19:31.949Z,16.30
2023-03-21T04:20:37.052Z,18.20
2023-03-21T04:21:31.907Z,16.50
2023-03-21T04:22:31.914Z,15.60
2023-03-21T04:23:31.895Z,18.30
2023-03-21T04:24:31.865Z,15.20
2023-03-21T04:25:34.140Z,19.70
2023-03-21T04:26:31.812Z,14.30
2023-03-21T04:27:31.812Z,16.50
2023-03-21T04:28:31.840Z,15.60
2023-03-21T04:29:31.813Z,18.70
2023-03-21T04:30:31.805Z,17.40
2023-03-21T04:31:31.759Z,17.80
2023-03-21T04:32:31.770Z,18.10
2023-03-21T04:33:31.757Z,18.90
2023-03-21T04:34:37.738Z,19.50
2023-03-21T04:35:32.471Z,22.50
2023-03-21T04:36:31.673Z,20.30
2023-03-21T04:37:31.675Z,17.50
2023-03-21T04:38:31.647Z,15.70
2023-03-21T04:39:31.628Z,16.30
2023-03-21T04:40:31.631Z,26.60
2023-03-21T04:41:31.600Z,16.50
2023-03-21T04:42:31.612Z,15.00
2023-03-21T04:43:31.591Z,20.90
2023-03-21T04:44:31.577Z,20.50
2023-03-21T04:45:31.586Z,16.30
2023-03-21T04:46:31.560Z,20.20
2023-03-21T04:47:31.525Z,21.40
2023-03-21T04:48:31.534Z,17.60
2023-03-21T04:49:31.516Z,20.90
2023-03-21T04:50:31.523Z,16.90
2023-03-21T04:51:31.497Z,26.00
2023-03-21T04:52:31.428Z,15.30
2023-03-21T04:53:31.463Z,15.90
2023-03-21T04:54:31.441Z,16.20
2023-03-21T04:55:31.421Z,15.30
2023-03-21T04:56:31.418Z,15.70
2023-03-21T04:57:31.424Z,24.40
2023-03-21T04:58:31.397Z,18.80
2023-03-21T04:59:31.327Z,22.60
2023-03-21T05:00:31.322Z,21.30
2023-03-21T05:01:31.563Z,20.10
2023-03-21T05:02:31.358Z,16.50
2023-03-21T05:03:32.290Z,22.20
2023-03-21T05:04:31.312Z,20.80
2023-03-21T05:05:31.246Z,16.90
2023-03-21T05:06:31.296Z,18.30
2023-03-21T05:07:31.290Z,18.80
2023-03-21T05:08:31.259Z,14.90
2023-03-21T05:09:31.209Z,20.70
2023-03-21T05:10:31.184Z,15.60
2023-03-21T05:11:31.154Z,17.40
2023-03-21T05:12:31.189Z,16.80
2023-03-21T05:13:31.134Z,15.90
2023-03-21T05:14:31.132Z,14.60
2023-03-21T05:15:31.120Z,18.10
2023-03-21T05:16:31.152Z,21.50
2023-03-21T05:17:31.118Z,17.90
2023-03-21T05:18:31.082Z,19.70
2023-03-21T05:19:31.060Z,21.50
2023-03-21T05:20:31.097Z,15.20
2023-03-21T05:21:31.065Z,19.30
2023-03-21T05:22:31.036Z,16.80
2023-03-21T05:23:31.004Z,14.50
2023-03-21T05:24:31.005Z,18.90
2023-03-21T05:25:31.014Z,14.50
2023-03-21T05:26:30.974Z,16.90
2023-03-21T05:27:30.961Z,19.40
2023-03-21T05:28:30.946Z,15.70
2023-03-21T05:29:30.957Z,18.10
2023-03-21T05:30:30.975Z,16.10
2023-03-21T05:31:30.929Z,23.80
2023-03-21T05:32:30.924Z,17.20
2023-03-21T05:33:30.885Z,18.80
2023-03-21T05:34:30.871Z,17.70
2023-03-21T05:35:30.886Z,21.60
2023-03-21T05:36:30.850Z,17.80
2023-03-21T05:37:30.837Z,20.40
2023-03-21T05:38:30.862Z,18.00
2023-03-21T05:39:30.847Z,17.60
2023-03-21T05:40:30.854Z,22.00
2023-03-21T05:41:30.778Z,17.70
2023-03-21T05:42:30.788Z,17.00
2023-03-21T05:43:30.966Z,18.90
2023-03-21T05:44:30.745Z,21.10
2023-03-21T05:45:30.741Z,21.70
2023-03-21T05:46:30.794Z,23.30
2023-03-21T05:47:30.706Z,17.40
2023-03-21T05:48:30.710Z,24.60
2023-03-21T05:49:30.681Z,21.00
2023-03-21T05:50:30.706Z,23.30
2023-03-21T05:51:30.663Z,23.00
2023-03-21T05:52:30.659Z,13.60
2023-03-21T05:53:30.650Z,19.80
2023-03-21T05:54:30.622Z,25.40
2023-03-21T05:55:30.603Z,27.60
2023-03-21T05:56:30.615Z,28.70
2023-03-21T05:57:30.581Z,26.40
2023-03-21T05:58:30.599Z,21.10
2023-03-21T05:59:30.548Z,25.80
2023-03-21T06:00:30.775Z,24.10
2023-03-21T06:01:30.534Z,23.80
2023-03-21T06:02:30.545Z,27.80
2023-03-21T06:03:30.606Z,22.30
2023-03-21T06:04:30.500Z,24.20
2023-03-21T06:05:30.476Z,19.40
2023-03-21T06:06:30.464Z,20.40
2023-03-21T06:07:30.453Z,25.70
2023-03-21T06:08:30.499Z,24.70
2023-03-21T06:09:30.424Z,24.30
2023-03-21T06:10:30.419Z,27.40
2023-03-21T06:11:30.398Z,24.70
2023-03-21T06:12:30.380Z,23.30
2023-03-21T06:13:30.660Z,21.50
2023-03-21T06:14:30.385Z,24.40
2023-03-21T06:15:30.817Z,19.70
2023-03-21T06:16:30.404Z,23.20
2023-03-21T06:17:30.384Z,23.00
2023-03-21T06:18:30.331Z,19.00
2023-03-21T06:19:30.295Z,23.60
2023-03-21T06:20:30.315Z,25.90
2023-03-21T06:21:30.355Z,16.90
2023-03-21T06:22:30.268Z,19.10
2023-03-21T06:23:30.248Z,19.30
2023-03-21T06:24:30.232Z,21.30
2023-03-21T06:25:30.249Z,23.10
2023-03-21T06:26:30.224Z,21.70
2023-03-21T06:27:30.201Z,20.20
2023-03-21T06:28:30.186Z,17.40
2023-03-21T06:29:30.174Z,20.20
2023-03-21T06:30:30.176Z,21.60
2023-03-21T06:31:30.165Z,26.50
2023-03-21T06:32:30.117Z,23.30
2023-03-21T06:33:30.135Z,19.60
2023-03-21T06:34:30.131Z,24.90
2023-03-21T06:35:30.133Z,19.20
2023-03-21T06:36:30.076Z,25.60
2023-03-21T06:37:30.107Z,24.40
2023-03-21T06:38:30.062Z,23.90
2023-03-21T06:39:30.051Z,23.60
2023-03-21T06:40:30.031Z,23.40
2023-03-21T06:41:30.012Z,25.30
2023-03-21T06:42:30.004Z,23.90
2023-03-21T06:43:30.020Z,21.30
2023-03-21T06:44:29.970Z,28.20
2023-03-21T06:45:29.987Z,23.60
2023-03-21T06:46:29.980Z,26.10
2023-03-21T06:47:29.956Z,25.70
2023-03-21T06:48:29.937Z,23.60
2023-03-21T06:49:29.910Z,23.90
2023-03-21T06:50:29.914Z,24.80
2023-03-21T06:51:29.883Z,27.60
2023-03-21T06:52:29.860Z,19.20
2023-03-21T06:53:29.915Z,21.50
2023-03-21T06:54:29.843Z,27.60
2023-03-21T06:55:29.867Z,28.80
2023-03-21T06:56:29.809Z,22.30
2023-03-21T06:57:29.815Z,19.90
2023-03-21T06:58:29.820Z,24.40
2023-03-21T06:59:29.804Z,23.50
2023-03-21T07:00:29.808Z,28.60
2023-03-21T07:01:29.751Z,21.00
2023-03-21T07:02:29.773Z,23.30
2023-03-21T07:03:29.751Z,22.00
2023-03-21T07:04:29.716Z,31.70
2023-03-21T07:05:29.735Z,21.20
2023-03-21T07:06:29.687Z,23.50
2023-03-21T07:07:29.691Z,23.00
2023-03-21T07:08:29.675Z,20.70
2023-03-21T07:09:29.656Z,25.00
2023-03-21T07:10:29.651Z,23.40
2023-03-21T07:11:29.644Z,27.80
2023-03-21T07:12:29.612Z,20.50
2023-03-21T07:13:29.623Z,30.90
2023-03-21T07:14:29.588Z,21.80
2023-03-21T07:15:29.614Z,27.00
2023-03-21T07:16:29.588Z,28.10
2023-03-21T07:17:29.554Z,31.60
2023-03-21T07:18:29.557Z,27.30
2023-03-21T07:19:29.526Z,26.80
2023-03-21T07:20:29.541Z,24.00
2023-03-21T07:21:29.505Z,33.50
2023-03-21T07:22:29.495Z,29.90
2023-03-21T07:23:29.499Z,34.40
2023-03-21T07:24:29.473Z,29.80
2023-03-21T07:25:29.546Z,35.70
2023-03-21T07:26:29.452Z,34.30
2023-03-21T07:27:29.435Z,35.30
2023-03-21T07:28:29.431Z,35.20
2023-03-21T07:29:29.403Z,35.20
2023-03-21T07:30:29.405Z,43.30
2023-03-21T07:31:29.411Z,46.80
2023-03-21T07:32:29.354Z,41.00
2023-03-21T07:33:29.351Z,41.10
2023-03-21T07:34:29.361Z,42.70
2023-03-21T07:35:29.371Z,39.90
2023-03-21T07:36:29.312Z,41.40
2023-03-21T07:37:29.296Z,38.90
2023-03-21T07:38:29.293Z,45.90
2023-03-21T07:39:29.268Z,40.60
2023-03-21T07:40:29.244Z,35.70
2023-03-21T07:41:29.246Z,36.40
2023-03-21T07:42:29.246Z,40.00
2023-03-21T07:43:29.252Z,34.40
2023-03-21T07:44:29.197Z,41.80
2023-03-21T07:45:29.230Z,39.10
2023-03-21T07:46:29.288Z,42.70
2023-03-21T07:47:29.162Z,43.40
2023-03-21T07:48:29.153Z,44.00
2023-03-21T07:49:29.136Z,39.20
2023-03-21T07:50:29.164Z,39.30
2023-03-21T07:51:29.113Z,38.00
2023-03-21T07:52:29.098Z,38.40
2023-03-21T07:53:29.152Z,47.40
2023-03-21T07:54:29.073Z,43.70
2023-03-21T07:55:29.082Z,36.00
2023-03-21T07:56:29.058Z,41.10
2023-03-21T07:57:29.073Z,36.60
2023-03-21T07:58:29.023Z,36.00
2023-03-21T07:59:29.013Z,35.90
2023-03-21T08:00:29.104Z,46.60
2023-03-21T08:01:28.989Z,44.40
2023-03-21T08:02:28.996Z,49.30
2023-03-21T08:03:28.977Z,38.40
2023-03-21T08:04:29.183Z,39.90
2023-03-21T08:05:28.936Z,35.00
2023-03-21T08:06:28.917Z,44.10
2023-03-21T08:07:28.909Z,46.00
2023-03-21T08:08:28.894Z,40.40
2023-03-21T08:09:30.728Z,43.70
2023-03-21T08:10:28.911Z,40.10
2023-03-21T08:11:28.857Z,46.20
2023-03-21T08:12:28.847Z,40.60
2023-03-21T08:13:28.824Z,47.60
2023-03-21T08:14:28.848Z,46.20
2023-03-21T08:15:28.838Z,44.70
2023-03-21T08:16:28.822Z,49.80
2023-03-21T08:17:28.781Z,47.30
2023-03-21T08:18:28.762Z,52.60
2023-03-21T08:19:28.748Z,44.70
2023-03-21T08:20:28.761Z,52.00
2023-03-21T08:21:28.728Z,47.50
2023-03-21T08:22:28.758Z,49.60
2023-03-21T08:23:28.702Z,53.10
2023-03-21T08:24:28.737Z,52.00
2023-03-21T08:25:28.728Z,47.80
2023-03-21T08:26:28.688Z,49.20
2023-03-21T08:27:28.658Z,50.50
2023-03-21T08:28:28.635Z,49.10
2023-03-21T08:29:28.646Z,58.10
2023-03-21T08:30:28.648Z,51.40
2023-03-21T08:31:28.608Z,52.70
2023-03-21T08:32:28.583Z,59.10
2023-03-21T08:33:28.566Z,46.80
2023-03-21T08:34:28.559Z,54.70
2023-03-21T08:35:28.592Z,55.00
2023-03-21T08:36:28.533Z,53.00
2023-03-21T08:37:28.528Z,56.40
2023-03-21T08:38:28.511Z,64.30
2023-03-21T08:39:28.618Z,58.50
2023-03-21T08:40:28.499Z,61.40
2023-03-21T08:41:28.511Z,68.70
2023-03-21T08:42:28.450Z,61.00
2023-03-21T08:43:28.448Z,61.00
2023-03-21T08:44:28.460Z,57.20
2023-03-21T08:45:28.426Z,61.70
2023-03-21T08:46:28.485Z,66.90
2023-03-21T08:47:28.404Z,62.10
2023-03-21T08:48:28.376Z,64.00
2023-03-21T08:49:28.394Z,61.80
2023-03-21T08:50:28.385Z,64.50
2023-03-21T08:51:28.344Z,60.40
2023-03-21T08:52:28.324Z,59.80
2023-03-21T08:53:28.317Z,53.80
2023-03-21T08:54:28.336Z,51.10
2023-03-21T08:55:28.295Z,57.50
2023-03-21T08:56:28.273Z,53.50
2023-03-21T08:57:28.275Z,56.80
2023-03-21T08:58:28.254Z,51.70
2023-03-21T08:59:28.291Z,52.80
2023-03-21T09:00:28.238Z,51.70
2023-03-21T09:01:28.244Z,46.80
2023-03-21T09:02:28.199Z,46.90
2023-03-21T09:03:28.200Z,53.60
2023-03-21T09:04:28.230Z,54.20
2023-03-21T09:05:28.782Z,46.20
2023-03-21T09:06:28.169Z,46.10
2023-03-21T09:07:28.132Z,51.70
2023-03-21T09:08:28.117Z,44.70
2023-03-21T09:09:28.122Z,45.00
2023-03-21T09:10:28.117Z,45.00
2023-03-21T09:11:28.084Z,44.10
2023-03-21T09:12:28.071Z,39.10
2023-03-21T09:13:28.062Z,44.80
2023-03-21T09:14:28.880Z,40.60
2023-03-21T09:15:28.027Z,41.20
2023-03-21T09:16:28.068Z,47.60
2023-03-21T09:17:28.024Z,44.50
2023-03-21T09:18:28.008Z,50.90
2023-03-21T09:19:27.999Z,47.00
2023-03-21T09:20:27.978Z,52.40
2023-03-21T09:21:27.969Z,59.40
2023-03-21T09:22:27.941Z,53.50
2023-03-21T09:23:27.961Z,50.00
2023-03-21T09:24:27.977Z,57.80
2023-03-21T09:25:27.949Z,49.80
2023-03-21T09:26:27.911Z,55.60
2023-03-21T09:27:27.896Z,55.90
2023-03-21T09:28:27.880Z,53.00
2023-03-21T09:29:27.870Z,47.30
2023-03-21T09:30:27.874Z,54.10
2023-03-21T09:31:27.906Z,49.20
2023-03-21T09:32:27.824Z,47.90
2023-03-21T09:33:27.813Z,54.20
2023-03-21T09:34:27.821Z,52.20
2023-03-21T09:35:27.805Z,49.20
2023-03-21T09:36:27.758Z,40.50
2023-03-21T09:37:27.777Z,45.20
2023-03-21T09:38:27.740Z,41.70
2023-03-21T09:39:27.741Z,37.10
2023-03-21T09:40:27.706Z,41.40
2023-03-21T09:41:27.708Z,41.00
2023-03-21T09:42:27.678Z,33.80
2023-03-21T09:43:27.684Z,37.50
2023-03-21T09:44:27.685Z,38.70
2023-03-21T09:45:27.878Z,36.40
2023-03-21T09:46:27.687Z,39.30
2023-03-21T09:47:27.635Z,36.50
2023-03-21T09:48:27.642Z,30.90
2023-03-21T09:49:27.622Z,40.60
2023-03-21T09:50:27.637Z,38.30
2023-03-21T09:51:27.573Z,37.10
2023-03-21T09:52:27.561Z,45.90
2023-03-21T09:53:27.572Z,36.10
2023-03-21T09:54:27.568Z,38.00
2023-03-21T09:55:27.527Z,44.40
2023-03-21T09:56:27.535Z,34.80
2023-03-21T09:57:27.519Z,38.10
2023-03-21T09:58:27.503Z,34.00
2023-03-21T09:59:27.508Z,37.30
2023-03-21T10:00:27.551Z,33.30
2023-03-21T10:01:27.451Z,33.40
2023-03-21T10:02:27.438Z,38.00
2023-03-21T10:03:27.434Z,39.80
2023-03-21T10:04:27.474Z,37.70
2023-03-21T10:05:27.433Z,35.90
2023-03-21T10:06:27.394Z,40.10
2023-03-21T10:07:27.377Z,37.70
2023-03-21T10:08:27.358Z,42.90
2023-03-21T10:09:27.366Z,38.20
2023-03-21T10:10:27.364Z,41.00
2023-03-21T10:11:27.324Z,38.80
2023-03-21T10:12:27.310Z,40.70
2023-03-21T10:13:27.303Z,43.00
2023-03-21T10:14:27.290Z,39.00
2023-03-21T10:15:27.290Z,38.80
2023-03-21T10:16:27.471Z,42.60
2023-03-21T10:17:27.263Z,36.20
2023-03-21T10:18:27.248Z,33.70
2023-03-21T10:19:27.252Z,34.90
2023-03-21T10:20:27.227Z,34.50
2023-03-21T10:21:56.657Z,36.40
2023-03-21T10:22:27.200Z,37.40
2023-03-21T10:23:27.183Z,36.60
2023-03-21T10:24:27.160Z,36.50
2023-03-21T10:25:27.193Z,35.70
2023-03-21T10:26:27.138Z,36.50
2023-03-21T10:27:27.130Z,34.80
2023-03-21T10:28:27.112Z,33.20
2023-03-21T10:29:27.096Z,35.50
2023-03-21T10:30:27.104Z,40.90
2023-03-21T10:31:27.137Z,28.30
2023-03-21T10:32:27.064Z,41.00
2023-03-21T10:33:27.053Z,34.80
2023-03-21T10:34:27.043Z,37.60
2023-03-21T10:35:27.053Z,31.00
2023-03-21T10:36:27.024Z,32.10
2023-03-21T10:37:26.996Z,28.90
2023-03-21T10:38:27.000Z,31.80
2023-03-21T10:39:26.975Z,35.70
2023-03-21T10:40:26.972Z,29.10
2023-03-21T10:41:26.961Z,31.50
2023-03-21T10:42:26.944Z,32.80
2023-03-21T10:43:26.926Z,26.90
2023-03-21T10:44:26.906Z,31.00
2023-03-21T10:45:26.922Z,31.40
2023-03-21T10:46:27.136Z,32.70
2023-03-21T10:47:27.127Z,30.10
2023-03-21T10:48:27.000Z,32.80
2023-03-21T10:49:26.847Z,32.60
2023-03-21T10:50:26.906Z,34.30
2023-03-21T10:51:26.829Z,30.90
2023-03-21T10:52:26.806Z,29.50
2023-03-21T10:53:26.806Z,28.60
2023-03-21T10:54:26.784Z,24.80
2023-03-21T10:55:26.779Z,25.90
2023-03-21T10:56:26.753Z,26.10
2023-03-21T10:57:26.816Z,28.80
2023-03-21T10:58:26.730Z,28.90
2023-03-21T10:59:26.711Z,29.00
2023-03-21T11:00:26.738Z,24.00
2023-03-21T11:01:26.776Z,25.90
2023-03-21T11:02:26.715Z,23.90
2023-03-21T11:03:26.655Z,33.10
2023-03-21T11:04:26.669Z,26.90
2023-03-21T11:05:26.681Z,26.00
2023-03-21T11:06:26.636Z,26.10
2023-03-21T11:07:26.609Z,21.20
2023-03-21T11:08:26.622Z,24.30
2023-03-21T11:09:26.578Z,27.90
2023-03-21T11:10:29.079Z,24.70
2023-03-21T11:11:26.566Z,21.30
2023-03-21T11:12:26.553Z,22.50
2023-03-21T11:13:26.551Z,24.90
2023-03-21T11:14:26.536Z,20.40
2023-03-21T11:15:26.523Z,25.00
2023-03-21T11:16:26.543Z,24.00
2023-03-21T11:17:26.481Z,22.30
2023-03-21T11:18:26.468Z,18.90
2023-03-21T11:19:26.472Z,20.90
2023-03-21T11:20:26.464Z,22.10
2023-03-21T11:21:26.474Z,21.60
2023-03-21T11:22:26.443Z,18.30
2023-03-21T11:23:26.410Z,20.10
2023-03-21T11:24:26.398Z,18.60
2023-03-21T11:25:26.415Z,15.60
2023-03-21T11:26:26.415Z,14.70
2023-03-21T11:27:26.375Z,17.10
2023-03-21T11:28:26.992Z,13.50
2023-03-21T11:29:26.339Z,16.50
2023-03-21T11:30:26.328Z,18.60
2023-03-21T11:31:26.327Z,16.50
2023-03-21T11:32:26.305Z,23.70
2023-03-21T11:33:26.280Z,15.00
2023-03-21T11:34:26.276Z,20.80
2023-03-21T11:35:26.340Z,13.70
2023-03-21T11:36:26.248Z,14.60
2023-03-21T11:37:26.294Z,12.90
2023-03-21T11:38:26.220Z,15.00
2023-03-21T11:39:26.198Z,13.50
2023-03-21T11:40:26.232Z,12.70
2023-03-21T11:41:26.199Z,14.80
2023-03-21T11:42:26.177Z,12.60
2023-03-21T11:43:26.152Z,13.50
2023-03-21T11:44:26.149Z,13.70
2023-03-21T11:45:26.143Z,12.80
2023-03-21T11:46:26.171Z,14.20
2023-03-21T11:47:26.098Z,16.20
2023-03-21T11:48:26.120Z,15.10
2023-03-21T11:49:26.075Z,13.00
2023-03-21T11:50:26.060Z,16.30
2023-03-21T11:51:26.070Z,13.70
2023-03-21T11:52:26.091Z,13.60
2023-03-21T11:53:26.019Z,13.10
2023-03-21T11:54:26.008Z,16.60
2023-03-21T11:55:26.011Z,17.40
2023-03-21T11:56:26.085Z,18.40
2023-03-21T11:57:26.003Z,18.90
2023-03-21T11:58:26.028Z,16.40
2023-03-21T11:59:25.952Z,13.70
2023-03-21T12:00:25.948Z,13.50
2023-03-21T12:01:25.992Z,15.30
2023-03-21T12:02:25.943Z,13.20
2023-03-21T12:03:27.342Z,14.00
2023-03-21T12:04:25.956Z,13.30
2023-03-21T12:05:25.871Z,12.80
2023-03-21T12:06:25.880Z,14.30
2023-03-21T12:07:25.857Z,17.00
2023-03-21T12:08:25.846Z,14.10
2023-03-21T12:09:25.816Z,14.50
2023-03-21T12:10:25.802Z,16.70
2023-03-21T12:11:25.818Z,12.50
2023-03-21T12:12:36.473Z,15.80
2023-03-21T12:13:25.775Z,14.80
2023-03-21T12:14:25.764Z,17.60
2023-03-21T12:15:25.766Z,13.60
2023-03-21T12:16:25.780Z,15.00
2023-03-21T12:17:25.714Z,15.50
2023-03-21T12:18:25.701Z,14.80
2023-03-21T12:19:25.694Z,15.30
2023-03-21T12:20:25.690Z,15.60
2023-03-21T12:21:25.699Z,16.10
2023-03-21T12:22:25.651Z,15.70
2023-03-21T12:23:25.728Z,16.00
2023-03-21T12:24:25.628Z,19.60
2023-03-21T12:25:25.642Z,16.60
2023-03-21T12:26:25.653Z,17.90
2023-03-21T12:27:25.595Z,21.60
2023-03-21T12:28:32.585Z,19.80
2023-03-21T12:29:25.571Z,19.40
2023-03-21T12:30:25.557Z,18.60
2023-03-21T12:31:25.660Z,19.00
2023-03-21T12:32:25.552Z,20.40
2023-03-21T12:33:25.522Z,17.80
2023-03-21T12:34:25.517Z,18.00
2023-03-21T12:35:25.518Z,19.70
2023-03-21T12:36:25.523Z,18.50
2023-03-21T12:37:25.485Z,18.90
2023-03-21T12:38:25.460Z,18.90
2023-03-21T12:39:25.442Z,26.00
2023-03-21T12:40:25.433Z,19.90
2023-03-21T12:41:25.446Z,21.00
2023-03-21T12:42:25.398Z,19.10
2023-03-21T12:43:25.387Z,18.90
2023-03-21T12:44:25.376Z,19.30
2023-03-21T12:45:26.108Z,20.90
2023-03-21T12:46:25.481Z,19.00
2023-03-21T12:47:25.350Z,19.00
2023-03-21T12:48:25.353Z,17.90
2023-03-21T12:49:25.323Z,15.60
2023-03-21T12:50:25.315Z,19.20
2023-03-21T12:51:25.319Z,17.90
2023-03-21T12:52:25.278Z,15.80